sensor_id;sensor_type;location;lat;lon;timestamp;pressure;altitude;pressure_sealevel;temperature;humidity
13058;BME280;6595;49.578;11.012;2023-06-19T00:00:23;985.864;;;20.24;52.1
13058;BME280;6595;49.578;11.012;2023-06-19T00:02:24;985.871;;;20.21;52.0
13058;BME280;6595;49.578;11.012;2023-06-19T00:04:23;985.908;;;20.13;52.6
13058;BME280;6595;49.578;11.012;2023-06-19T00:06:23;985.843;;;20.08;53.2
13058;BME280;6595;49.578;11.012;2023-06-19T00:08:24;985.846;;;20.13;53.7
13058;BME280;6595;49.578;11.012;2023-06-19T00:10:23;985.846;;;20.16;53.4
13058;BME280;6595;49.578;11.012;2023-06-19T00:12:23;985.782;;;20.21;53.6
13058;BME280;6595;49.578;11.012;2023-06-19T00:14:24;985.748;;;20.20;53.7
13058;BME280;6595;49.578;11.012;2023-06-19T00:16:23;985.811;;;20.25;53.5
13058;BME280;6595;49.578;11.012;2023-06-19T00:18:24;985.762;;;20.27;53.2
13058;BME280;6595;49.578;11.012;2023-06-19T00:20:24;985.745;;;20.24;52.5
13058;BME280;6595;49.578;11.012;2023-06-19T00:22:24;985.721;;;20.27;52.6
13058;BME280;6595;49.578;11.012;2023-06-19T00:24:24;985.790;;;20.27;51.9
13058;BME280;6595;49.578;11.012;2023-06-19T00:26:23;985.724;;;20.25;52.3
13058;BME280;6595;49.578;11.012;2023-06-19T00:28:23;985.727;;;20.24;52.5
13058;BME280;6595;49.578;11.012;2023-06-19T00:30:24;985.737;;;20.23;52.6
13058;BME280;6595;49.578;11.012;2023-06-19T00:32:24;985.730;;;20.24;53.4
13058;BME280;6595;49.578;11.012;2023-06-19T00:34:23;985.762;;;20.23;53.1
13058;BME280;6595;49.578;11.012;2023-06-19T00:36:23;985.677;;;20.24;52.3
13058;BME280;6595;49.578;11.012;2023-06-19T00:38:24;985.618;;;20.25;52.2
13058;BME280;6595;49.578;11.012;2023-06-19T00:40:27;985.681;;;20.28;51.6
13058;BME280;6595;49.578;11.012;2023-06-19T00:42:23;985.720;;;20.31;50.9
13058;BME280;6595;49.578;11.012;2023-06-19T00:44:23;985.788;;;20.34;50.5
13058;BME280;6595;49.578;11.012;2023-06-19T00:46:24;985.761;;;20.35;50.2
13058;BME280;6595;49.578;11.012;2023-06-19T00:48:23;985.744;;;20.35;50.4
13058;BME280;6595;49.578;11.012;2023-06-19T00:50:23;985.701;;;20.32;50.5
13058;BME280;6595;49.578;11.012;2023-06-19T00:52:24;985.780;;;20.35;50.9
13058;BME280;6595;49.578;11.012;2023-06-19T00:54:24;985.828;;;20.41;50.0
13058;BME280;6595;49.578;11.012;2023-06-19T00:56:23;985.836;;;20.37;49.9
13058;BME280;6595;49.578;11.012;2023-06-19T00:58:24;985.824;;;20.44;50.1
13058;BME280;6595;49.578;11.012;2023-06-19T01:00:23;985.854;;;20.39;50.7
13058;BME280;6595;49.578;11.012;2023-06-19T01:02:24;985.802;;;20.44;50.7
13058;BME280;6595;49.578;11.012;2023-06-19T01:04:24;985.791;;;20.47;50.6
13058;BME280;6595;49.578;11.012;2023-06-19T01:06:27;985.828;;;20.45;51.1
13058;BME280;6595;49.578;11.012;2023-06-19T01:08:39;985.785;;;20.45;50.9
13058;BME280;6595;49.578;11.012;2023-06-19T01:10:26;985.822;;;20.39;50.5
13058;BME280;6595;49.578;11.012;2023-06-19T01:12:28;985.773;;;20.39;50.3
13058;BME280;6595;49.578;11.012;2023-06-19T01:14:26;985.691;;;20.32;50.4
13058;BME280;6595;49.578;11.012;2023-06-19T01:16:25;985.725;;;20.28;51.1
13058;BME280;6595;49.578;11.012;2023-06-19T01:18:24;985.619;;;20.20;50.7
13058;BME280;6595;49.578;11.012;2023-06-19T01:20:24;985.681;;;20.17;51.3
13058;BME280;6595;49.578;11.012;2023-06-19T01:22:25;985.756;;;20.16;51.8
13058;BME280;6595;49.578;11.012;2023-06-19T01:24:23;985.718;;;20.16;52.1
13058;BME280;6595;49.578;11.012;2023-06-19T01:26:24;985.737;;;20.13;51.7
13058;BME280;6595;49.578;11.012;2023-06-19T01:28:23;985.686;;;20.04;52.6
13058;BME280;6595;49.578;11.012;2023-06-19T01:30:23;985.731;;;20.00;51.9
13058;BME280;6595;49.578;11.012;2023-06-19T01:32:28;985.656;;;19.93;52.7
13058;BME280;6595;49.578;11.012;2023-06-19T01:34:25;985.598;;;19.84;53.2
13058;BME280;6595;49.578;11.012;2023-06-19T01:36:24;985.633;;;19.76;53.3
13058;BME280;6595;49.578;11.012;2023-06-19T01:38:25;985.637;;;19.78;53.4
13058;BME280;6595;49.578;11.012;2023-06-19T01:40:24;985.673;;;19.67;53.7
13058;BME280;6595;49.578;11.012;2023-06-19T01:42:24;985.614;;;19.63;53.8
13058;BME280;6595;49.578;11.012;2023-06-19T01:44:24;985.615;;;19.56;54.2
13058;BME280;6595;49.578;11.012;2023-06-19T01:46:23;985.622;;;19.52;54.4
13058;BME280;6595;49.578;11.012;2023-06-19T01:48:24;985.590;;;19.45;54.5
13058;BME280;6595;49.578;11.012;2023-06-19T01:50:24;985.629;;;19.34;54.7
13058;BME280;6595;49.578;11.012;2023-06-19T01:52:23;985.687;;;19.34;54.7
13058;BME280;6595;49.578;11.012;2023-06-19T01:54:24;985.678;;;19.30;54.3
13058;BME280;6595;49.578;11.012;2023-06-19T01:56:23;985.635;;;19.29;54.5
13058;BME280;6595;49.578;11.012;2023-06-19T01:58:24;985.625;;;19.22;55.8
13058;BME280;6595;49.578;11.012;2023-06-19T02:00:24;985.713;;;19.25;56.0
13058;BME280;6595;49.578;11.012;2023-06-19T02:02:23;985.610;;;19.23;56.0
13058;BME280;6595;49.578;11.012;2023-06-19T02:04:23;985.663;;;19.22;55.8
13058;BME280;6595;49.578;11.012;2023-06-19T02:06:24;985.663;;;19.22;55.8
13058;BME280;6595;49.578;11.012;2023-06-19T02:08:23;985.732;;;19.18;54.1
13058;BME280;6595;49.578;11.012;2023-06-19T02:10:23;985.679;;;19.15;55.2
13058;BME280;6595;49.578;11.012;2023-06-19T02:12:24;985.569;;;19.16;55.2
13058;BME280;6595;49.578;11.012;2023-06-19T02:14:23;985.632;;;19.22;54.8
13058;BME280;6595;49.578;11.012;2023-06-19T02:16:23;985.571;;;19.19;55.5
13058;BME280;6595;49.578;11.012;2023-06-19T02:18:24;985.586;;;19.22;55.7
13058;BME280;6595;49.578;11.012;2023-06-19T02:20:24;985.628;;;19.22;55.4
13058;BME280;6595;49.578;11.012;2023-06-19T02:22:24;985.570;;;19.18;55.6
13058;BME280;6595;49.578;11.012;2023-06-19T02:24:23;985.629;;;19.19;55.3
13058;BME280;6595;49.578;11.012;2023-06-19T02:26:23;985.640;;;19.20;55.1
13058;BME280;6595;49.578;11.012;2023-06-19T02:28:24;985.637;;;19.16;55.4
13058;BME280;6595;49.578;11.012;2023-06-19T02:30:23;985.583;;;19.12;54.7
13058;BME280;6595;49.578;11.012;2023-06-19T02:32:23;985.544;;;19.09;54.8
13058;BME280;6595;49.578;11.012;2023-06-19T02:34:24;985.628;;;19.05;55.1
13058;BME280;6595;49.578;11.012;2023-06-19T02:36:23;985.589;;;18.96;55.5
13058;BME280;6595;49.578;11.012;2023-06-19T02:38:23;985.669;;;18.88;55.0
13058;BME280;6595;49.578;11.012;2023-06-19T02:40:24;985.671;;;18.79;54.8
13058;BME280;6595;49.578;11.012;2023-06-19T02:42:23;985.701;;;18.79;55.1
13058;BME280;6595;49.578;11.012;2023-06-19T02:44:24;985.632;;;18.72;56.2
13058;BME280;6595;49.578;11.012;2023-06-19T02:46:23;985.598;;;18.74;56.5
13058;BME280;6595;49.578;11.012;2023-06-19T02:48:23;985.637;;;18.66;56.8
13058;BME280;6595;49.578;11.012;2023-06-19T02:50:24;985.596;;;18.72;56.9
13058;BME280;6595;49.578;11.012;2023-06-19T02:52:24;985.595;;;18.71;57.2
13058;BME280;6595;49.578;11.012;2023-06-19T02:54:23;985.607;;;18.66;57.1
13058;BME280;6595;49.578;11.012;2023-06-19T02:56:26;985.578;;;18.69;56.7
13058;BME280;6595;49.578;11.012;2023-06-19T02:58:23;985.607;;;18.69;56.7
13058;BME280;6595;49.578;11.012;2023-06-19T03:00:23;985.652;;;18.56;57.1
13058;BME280;6595;49.578;11.012;2023-06-19T03:02:24;985.613;;;18.58;57.4
13058;BME280;6595;49.578;11.012;2023-06-19T03:04:23;985.622;;;18.54;56.7
13058;BME280;6595;49.578;11.012;2023-06-19T03:06:23;985.746;;;18.50;56.8
13058;BME280;6595;49.578;11.012;2023-06-19T03:08:24;985.734;;;18.47;57.2
13058;BME280;6595;49.578;11.012;2023-06-19T03:10:24;985.744;;;18.48;57.5
13058;BME280;6595;49.578;11.012;2023-06-19T03:12:23;985.793;;;18.43;58.3
13058;BME280;6595;49.578;11.012;2023-06-19T03:14:24;985.755;;;18.37;58.2
13058;BME280;6595;49.578;11.012;2023-06-19T03:16:23;985.798;;;18.31;58.8
13058;BME280;6595;49.578;11.012;2023-06-19T03:18:23;985.760;;;18.38;59.1
13058;BME280;6595;49.578;11.012;2023-06-19T03:20:23;985.773;;;18.43;59.1
13058;BME280;6595;49.578;11.012;2023-06-19T03:22:23;985.773;;;18.43;59.1
13058;BME280;6595;49.578;11.012;2023-06-19T03:24:24;985.975;;;18.43;58.3
13058;BME280;6595;49.578;11.012;2023-06-19T03:26:24;985.876;;;18.47;58.5
13058;BME280;6595;49.578;11.012;2023-06-19T03:28:24;985.990;;;18.50;58.4
13058;BME280;6595;49.578;11.012;2023-06-19T03:30:24;985.993;;;18.43;57.4
13058;BME280;6595;49.578;11.012;2023-06-19T03:32:23;986.082;;;18.40;57.4
13058;BME280;6595;49.578;11.012;2023-06-19T03:34:25;986.132;;;18.47;57.5
13058;BME280;6595;49.578;11.012;2023-06-19T03:36:24;986.211;;;18.44;57.8
13058;BME280;6595;49.578;11.012;2023-06-19T03:40:24;986.256;;;18.48;57.9
13058;BME280;6595;49.578;11.012;2023-06-19T03:42:23;986.254;;;18.52;58.1
13058;BME280;6595;49.578;11.012;2023-06-19T03:44:24;986.320;;;18.58;57.3
13058;BME280;6595;49.578;11.012;2023-06-19T03:46:24;986.387;;;18.58;56.9
13058;BME280;6595;49.578;11.012;2023-06-19T03:48:23;986.411;;;18.66;56.3
13058;BME280;6595;49.578;11.012;2023-06-19T03:50:24;986.432;;;18.68;56.7
13058;BME280;6595;49.578;11.012;2023-06-19T03:52:23;986.524;;;18.69;56.4
13058;BME280;6595;49.578;11.012;2023-06-19T03:54:23;986.499;;;18.80;55.7
13058;BME280;6595;49.578;11.012;2023-06-19T03:56:24;986.488;;;18.86;56.1
13058;BME280;6595;49.578;11.012;2023-06-19T03:58:24;986.557;;;18.94;56.6
13058;BME280;6595;49.578;11.012;2023-06-19T04:00:23;986.484;;;19.03;56.3
13058;BME280;6595;49.578;11.012;2023-06-19T04:02:24;986.494;;;19.12;56.1
13058;BME280;6595;49.578;11.012;2023-06-19T04:04:24;986.496;;;19.20;55.6
13058;BME280;6595;49.578;11.012;2023-06-19T04:06:23;986.509;;;19.22;54.6
13058;BME280;6595;49.578;11.012;2023-06-19T04:08:24;986.429;;;19.23;55.0
13058;BME280;6595;49.578;11.012;2023-06-19T04:10:24;986.422;;;19.42;54.5
13058;BME280;6595;49.578;11.012;2023-06-19T04:12:23;986.501;;;19.48;54.6
13058;BME280;6595;49.578;11.012;2023-06-19T04:14:24;986.478;;;19.53;55.4
13058;BME280;6595;49.578;11.012;2023-06-19T04:16:23;986.489;;;19.57;55.5
13058;BME280;6595;49.578;11.012;2023-06-19T04:18:23;986.464;;;19.60;54.4
13058;BME280;6595;49.578;11.012;2023-06-19T04:20:24;986.417;;;19.60;53.6
13058;BME280;6595;49.578;11.012;2023-06-19T04:22:24;986.512;;;19.63;53.7
13058;BME280;6595;49.578;11.012;2023-06-19T04:24:23;986.491;;;19.64;53.2
13058;BME280;6595;49.578;11.012;2023-06-19T04:26:24;986.491;;;19.64;53.2
13058;BME280;6595;49.578;11.012;2023-06-19T04:28:23;986.526;;;19.67;54.7
13058;BME280;6595;49.578;11.012;2023-06-19T04:30:23;986.516;;;19.63;54.8
13058;BME280;6595;49.578;11.012;2023-06-19T04:32:24;986.572;;;19.69;55.7
13058;BME280;6595;49.578;11.012;2023-06-19T04:34:23;986.540;;;19.64;55.4
13058;BME280;6595;49.578;11.012;2023-06-19T04:36:23;986.485;;;19.69;55.7
13058;BME280;6595;49.578;11.012;2023-06-19T04:38:24;986.527;;;19.67;56.3
13058;BME280;6595;49.578;11.012;2023-06-19T04:40:24;986.580;;;19.69;56.1
13058;BME280;6595;49.578;11.012;2023-06-19T04:42:24;986.610;;;19.69;56.2
13058;BME280;6595;49.578;11.012;2023-06-19T04:44:23;986.623;;;19.69;56.2
13058;BME280;6595;49.578;11.012;2023-06-19T04:46:24;986.625;;;19.67;56.2
13058;BME280;6595;49.578;11.012;2023-06-19T04:48:23;986.691;;;19.72;56.4
13058;BME280;6595;49.578;11.012;2023-06-19T04:50:24;986.703;;;19.70;56.1
13058;BME280;6595;49.578;11.012;2023-06-19T04:52:24;986.687;;;19.73;55.8
13058;BME280;6595;49.578;11.012;2023-06-19T04:54:24;986.756;;;19.74;55.7
13058;BME280;6595;49.578;11.012;2023-06-19T04:56:24;986.795;;;19.83;56.4
13058;BME280;6595;49.578;11.012;2023-06-19T04:58:24;986.760;;;19.81;56.0
13058;BME280;6595;49.578;11.012;2023-06-19T05:00:23;986.812;;;19.87;55.5
13058;BME280;6595;49.578;11.012;2023-06-19T05:02:24;986.732;;;19.88;55.3
13058;BME280;6595;49.578;11.012;2023-06-19T05:04:24;986.791;;;19.91;54.5
13058;BME280;6595;49.578;11.012;2023-06-19T05:06:24;986.810;;;19.97;53.2
13058;BME280;6595;49.578;11.012;2023-06-19T05:08:24;986.737;;;20.03;53.5
13058;BME280;6595;49.578;11.012;2023-06-19T05:10:23;986.745;;;20.07;52.9
13058;BME280;6595;49.578;11.012;2023-06-19T05:12:23;986.760;;;20.11;53.3
13058;BME280;6595;49.578;11.012;2023-06-19T05:14:24;986.719;;;20.14;52.9
13058;BME280;6595;49.578;11.012;2023-06-19T05:16:23;986.769;;;20.27;52.3
13058;BME280;6595;49.578;11.012;2023-06-19T05:18:23;986.787;;;20.31;52.2
13058;BME280;6595;49.578;11.012;2023-06-19T05:20:24;986.740;;;20.39;51.5
13058;BME280;6595;49.578;11.012;2023-06-19T05:22:23;986.790;;;20.49;51.4
13058;BME280;6595;49.578;11.012;2023-06-19T05:24:24;986.843;;;20.62;51.4
13058;BME280;6595;49.578;11.012;2023-06-19T05:26:24;986.865;;;20.74;50.7
13058;BME280;6595;49.578;11.012;2023-06-19T05:28:23;986.819;;;20.92;50.9
13058;BME280;6595;49.578;11.012;2023-06-19T05:30:24;986.916;;;21.13;50.6
13058;BME280;6595;49.578;11.012;2023-06-19T05:32:23;986.937;;;21.25;50.4
13058;BME280;6595;49.578;11.012;2023-06-19T05:34:23;986.995;;;21.46;49.2
13058;BME280;6595;49.578;11.012;2023-06-19T05:36:24;987.002;;;21.58;48.8
13058;BME280;6595;49.578;11.012;2023-06-19T05:38:23;987.024;;;21.78;48.4
13058;BME280;6595;49.578;11.012;2023-06-19T05:40:23;987.040;;;21.87;48.4
13058;BME280;6595;49.578;11.012;2023-06-19T05:42:24;987.105;;;22.07;47.4
13058;BME280;6595;49.578;11.012;2023-06-19T05:44:23;987.103;;;22.18;47.3
13058;BME280;6595;49.578;11.012;2023-06-19T05:46:24;987.223;;;22.25;47.1
13058;BME280;6595;49.578;11.012;2023-06-19T05:48:23;987.293;;;22.35;47.3
13058;BME280;6595;49.578;11.012;2023-06-19T05:50:23;987.365;;;22.41;47.6
13058;BME280;6595;49.578;11.012;2023-06-19T05:52:24;987.382;;;22.45;47.4
13058;BME280;6595;49.578;11.012;2023-06-19T05:54:23;987.367;;;22.45;47.5
13058;BME280;6595;49.578;11.012;2023-06-19T05:56:23;987.389;;;22.58;47.7
13058;BME280;6595;49.578;11.012;2023-06-19T05:58:24;987.473;;;22.65;48.2
13058;BME280;6595;49.578;11.012;2023-06-19T06:00:24;987.449;;;22.76;48.2
13058;BME280;6595;49.578;11.012;2023-06-19T06:02:23;987.531;;;22.80;48.2
13058;BME280;6595;49.578;11.012;2023-06-19T06:04:24;987.553;;;22.76;47.8
13058;BME280;6595;49.578;11.012;2023-06-19T06:06:24;987.517;;;22.76;47.7
13058;BME280;6595;49.578;11.012;2023-06-19T06:08:24;987.627;;;22.85;47.5
13058;BME280;6595;49.578;11.012;2023-06-19T06:10:24;987.617;;;22.88;47.3
13058;BME280;6595;49.578;11.012;2023-06-19T06:12:24;987.595;;;23.01;47.5
13058;BME280;6595;49.578;11.012;2023-06-19T06:14:24;987.615;;;23.10;46.9
13058;BME280;6595;49.578;11.012;2023-06-19T06:16:23;987.521;;;23.26;47.0
13058;BME280;6595;49.578;11.012;2023-06-19T06:18:24;987.618;;;23.45;46.7
13058;BME280;6595;49.578;11.012;2023-06-19T06:20:23;987.556;;;23.61;46.5
13058;BME280;6595;49.578;11.012;2023-06-19T06:22:23;987.590;;;23.73;46.6
13058;BME280;6595;49.578;11.012;2023-06-19T06:24:24;987.619;;;23.77;46.5
13058;BME280;6595;49.578;11.012;2023-06-19T06:26:23;987.617;;;23.99;46.7
13058;BME280;6595;49.578;11.012;2023-06-19T06:28:23;987.656;;;23.99;46.6
13058;BME280;6595;49.578;11.012;2023-06-19T06:30:24;987.689;;;23.91;47.1
13058;BME280;6595;49.578;11.012;2023-06-19T06:32:23;987.689;;;23.91;47.1
13058;BME280;6595;49.578;11.012;2023-06-19T06:34:24;987.766;;;23.87;48.0
13058;BME280;6595;49.578;11.012;2023-06-19T06:36:23;987.763;;;23.83;48.3
13058;BME280;6595;49.578;11.012;2023-06-19T06:38:24;987.812;;;23.81;48.5
13058;BME280;6595;49.578;11.012;2023-06-19T06:40:24;987.895;;;23.76;48.9
13058;BME280;6595;49.578;11.012;2023-06-19T06:42:23;987.843;;;23.73;49.3
13058;BME280;6595;49.578;11.012;2023-06-19T06:44:24;987.896;;;23.63;49.6
13058;BME280;6595;49.578;11.012;2023-06-19T06:46:24;987.837;;;23.54;50.2
13058;BME280;6595;49.578;11.012;2023-06-19T06:48:23;987.899;;;23.53;50.3
13058;BME280;6595;49.578;11.012;2023-06-19T06:50:24;987.930;;;23.54;50.4
13058;BME280;6595;49.578;11.012;2023-06-19T06:52:23;987.958;;;23.56;50.5
13058;BME280;6595;49.578;11.012;2023-06-19T06:54:24;988.012;;;23.49;50.7
13058;BME280;6595;49.578;11.012;2023-06-19T06:56:24;987.974;;;23.49;50.9
13058;BME280;6595;49.578;11.012;2023-06-19T06:58:23;988.060;;;23.45;51.1
13058;BME280;6595;49.578;11.012;2023-06-19T07:00:24;988.062;;;23.45;51.3
13058;BME280;6595;49.578;11.012;2023-06-19T07:02:24;988.088;;;23.50;51.3
13058;BME280;6595;49.578;11.012;2023-06-19T07:04:23;988.047;;;23.54;50.7
13058;BME280;6595;49.578;11.012;2023-06-19T07:06:24;988.042;;;23.57;51.0
13058;BME280;6595;49.578;11.012;2023-06-19T07:08:23;988.066;;;23.99;50.1
13058;BME280;6595;49.578;11.012;2023-06-19T07:10:23;988.084;;;23.97;49.6
13058;BME280;6595;49.578;11.012;2023-06-19T07:12:24;988.062;;;23.91;49.8
13058;BME280;6595;49.578;11.012;2023-06-19T07:14:23;988.097;;;23.87;50.0
13058;BME280;6595;49.578;11.012;2023-06-19T07:16:23;988.015;;;23.85;49.8
13058;BME280;6595;49.578;11.012;2023-06-19T07:18:24;988.028;;;23.67;50.3
13058;BME280;6595;49.578;11.012;2023-06-19T07:20:23;988.117;;;23.67;50.7
13058;BME280;6595;49.578;11.012;2023-06-19T07:22:23;988.107;;;23.70;50.9
13058;BME280;6595;49.578;11.012;2023-06-19T07:24:24;988.208;;;23.77;50.7
13058;BME280;6595;49.578;11.012;2023-06-19T07:26:23;988.280;;;23.83;50.9
13058;BME280;6595;49.578;11.012;2023-06-19T07:28:23;988.226;;;23.90;50.7
13058;BME280;6595;49.578;11.012;2023-06-19T07:30:24;988.156;;;23.88;50.3
13058;BME280;6595;49.578;11.012;2023-06-19T07:32:23;988.227;;;23.85;51.0
13058;BME280;6595;49.578;11.012;2023-06-19T07:34:23;988.180;;;23.74;50.8
13058;BME280;6595;49.578;11.012;2023-06-19T07:36:24;988.160;;;23.79;51.0
13058;BME280;6595;49.578;11.012;2023-06-19T07:38:24;988.154;;;23.93;50.9
13058;BME280;6595;49.578;11.012;2023-06-19T07:40:23;988.221;;;24.04;50.8
13058;BME280;6595;49.578;11.012;2023-06-19T07:42:23;988.256;;;24.18;50.4
13058;BME280;6595;49.578;11.012;2023-06-19T07:44:24;988.256;;;24.18;50.4
13058;BME280;6595;49.578;11.012;2023-06-19T07:46:24;988.311;;;24.24;50.2
13058;BME280;6595;49.578;11.012;2023-06-19T07:48:23;988.238;;;24.37;50.0
13058;BME280;6595;49.578;11.012;2023-06-19T07:50:24;988.199;;;24.38;50.1
13058;BME280;6595;49.578;11.012;2023-06-19T07:52:23;988.186;;;24.21;50.5
13058;BME280;6595;49.578;11.012;2023-06-19T07:54:23;988.206;;;24.28;50.5
13058;BME280;6595;49.578;11.012;2023-06-19T07:56:24;988.179;;;24.47;50.6
13058;BME280;6595;49.578;11.012;2023-06-19T07:58:23;988.227;;;24.57;50.4
13058;BME280;6595;49.578;11.012;2023-06-19T08:00:23;988.264;;;24.58;50.3
13058;BME280;6595;49.578;11.012;2023-06-19T08:02:24;988.267;;;24.47;50.2
13058;BME280;6595;49.578;11.012;2023-06-19T08:04:23;988.245;;;24.54;50.0
13058;BME280;6595;49.578;11.012;2023-06-19T08:06:23;988.280;;;24.59;49.7
13058;BME280;6595;49.578;11.012;2023-06-19T08:08:24;988.316;;;24.54;50.1
13058;BME280;6595;49.578;11.012;2023-06-19T08:10:23;988.418;;;24.65;50.1
13058;BME280;6595;49.578;11.012;2023-06-19T08:12:23;988.455;;;24.74;49.8
13058;BME280;6595;49.578;11.012;2023-06-19T08:14:23;988.458;;;24.69;49.9
13058;BME280;6595;49.578;11.012;2023-06-19T08:16:24;988.483;;;24.69;50.0
13058;BME280;6595;49.578;11.012;2023-06-19T08:18:24;988.424;;;24.79;50.2
13058;BME280;6595;49.578;11.012;2023-06-19T08:20:23;988.445;;;25.16;49.7
13058;BME280;6595;49.578;11.012;2023-06-19T08:22:23;988.504;;;25.25;48.9
13058;BME280;6595;49.578;11.012;2023-06-19T08:24:24;988.514;;;25.33;48.9
13058;BME280;6595;49.578;11.012;2023-06-19T08:26:23;988.523;;;25.36;48.5
13058;BME280;6595;49.578;11.012;2023-06-19T08:28:23;988.599;;;25.32;48.7
13058;BME280;6595;49.578;11.012;2023-06-19T08:30:24;988.592;;;25.18;49.0
13058;BME280;6595;49.578;11.012;2023-06-19T08:32:23;988.552;;;25.12;49.4
13058;BME280;6595;49.578;11.012;2023-06-19T08:34:23;988.554;;;25.00;49.7
13058;BME280;6595;49.578;11.012;2023-06-19T08:36:24;988.525;;;25.08;49.7
13058;BME280;6595;49.578;11.012;2023-06-19T08:38:23;988.521;;;25.29;49.2
13058;BME280;6595;49.578;11.012;2023-06-19T08:40:24;988.683;;;25.33;49.1
13058;BME280;6595;49.578;11.012;2023-06-19T08:42:24;988.593;;;25.34;49.1
13058;BME280;6595;49.578;11.012;2023-06-19T08:44:23;988.672;;;25.26;49.0
13058;BME280;6595;49.578;11.012;2023-06-19T08:46:23;988.631;;;25.32;49.0
13058;BME280;6595;49.578;11.012;2023-06-19T08:48:24;988.596;;;25.28;48.9
13058;BME280;6595;49.578;11.012;2023-06-19T08:50:23;988.652;;;25.40;48.9
13058;BME280;6595;49.578;11.012;2023-06-19T08:52:24;988.585;;;25.36;48.8
13058;BME280;6595;49.578;11.012;2023-06-19T08:54:23;988.594;;;25.20;49.6
13058;BME280;6595;49.578;11.012;2023-06-19T08:56:23;988.646;;;25.22;49.7
13058;BME280;6595;49.578;11.012;2023-06-19T08:58:25;988.694;;;25.20;49.7
13058;BME280;6595;49.578;11.012;2023-06-19T09:00:24;988.694;;;25.20;49.7
13058;BME280;6595;49.578;11.012;2023-06-19T09:02:24;988.699;;;25.23;49.9
13058;BME280;6595;49.578;11.012;2023-06-19T09:04:25;988.634;;;25.28;49.6
13058;BME280;6595;49.578;11.012;2023-06-19T09:06:24;988.651;;;25.28;50.0
13058;BME280;6595;49.578;11.012;2023-06-19T09:08:24;988.677;;;25.30;49.9
13058;BME280;6595;49.578;11.012;2023-06-19T09:10:24;988.767;;;25.46;50.2
13058;BME280;6595;49.578;11.012;2023-06-19T09:12:24;988.638;;;25.30;50.1
13058;BME280;6595;49.578;11.012;2023-06-19T09:14:24;988.624;;;25.34;50.4
13058;BME280;6595;49.578;11.012;2023-06-19T09:16:23;988.652;;;25.30;49.9
13058;BME280;6595;49.578;11.012;2023-06-19T09:18:24;988.626;;;25.29;50.1
13058;BME280;6595;49.578;11.012;2023-06-19T09:20:26;988.591;;;25.34;50.0
13058;BME280;6595;49.578;11.012;2023-06-19T09:22:24;988.614;;;25.33;50.1
13058;BME280;6595;49.578;11.012;2023-06-19T09:24:23;988.608;;;25.30;50.5
13058;BME280;6595;49.578;11.012;2023-06-19T09:26:24;988.611;;;25.32;51.3
13058;BME280;6595;49.578;11.012;2023-06-19T09:28:25;988.594;;;25.36;50.4
13058;BME280;6595;49.578;11.012;2023-06-19T09:30:24;988.535;;;25.44;50.2
13058;BME280;6595;49.578;11.012;2023-06-19T09:32:26;988.609;;;25.29;50.0
13058;BME280;6595;49.578;11.012;2023-06-19T09:34:23;988.643;;;25.15;50.2
13058;BME280;6595;49.578;11.012;2023-06-19T09:36:25;988.616;;;25.15;50.3
13058;BME280;6595;49.578;11.012;2023-06-19T09:38:26;988.678;;;25.06;50.8
13058;BME280;6595;49.578;11.012;2023-06-19T09:40:23;988.645;;;25.09;50.6
13058;BME280;6595;49.578;11.012;2023-06-19T09:42:30;988.573;;;25.03;50.7
13058;BME280;6595;49.578;11.012;2023-06-19T09:44:24;988.651;;;25.05;50.9
13058;BME280;6595;49.578;11.012;2023-06-19T09:46:26;988.565;;;25.13;51.2
13058;BME280;6595;49.578;11.012;2023-06-19T09:48:27;988.531;;;25.08;51.1
13058;BME280;6595;49.578;11.012;2023-06-19T09:50:27;988.531;;;25.08;51.1
13058;BME280;6595;49.578;11.012;2023-06-19T09:52:23;988.549;;;25.26;50.8
13058;BME280;6595;49.578;11.012;2023-06-19T09:54:24;988.590;;;25.42;50.1
13058;BME280;6595;49.578;11.012;2023-06-19T09:56:24;988.582;;;25.63;50.0
13058;BME280;6595;49.578;11.012;2023-06-19T09:58:23;988.542;;;25.64;49.6
13058;BME280;6595;49.578;11.012;2023-06-19T10:00:24;988.502;;;25.69;49.7
13058;BME280;6595;49.578;11.012;2023-06-19T10:02:25;988.601;;;25.70;49.6
13058;BME280;6595;49.578;11.012;2023-06-19T10:04:23;988.574;;;25.62;49.6
13058;BME280;6595;49.578;11.012;2023-06-19T10:06:24;988.553;;;25.67;49.5
13058;BME280;6595;49.578;11.012;2023-06-19T10:08:29;988.565;;;25.69;49.3
13058;BME280;6595;49.578;11.012;2023-06-19T10:10:24;988.493;;;25.77;50.6
13058;BME280;6595;49.578;11.012;2023-06-19T10:12:34;988.516;;;25.93;49.2
13058;BME280;6595;49.578;11.012;2023-06-19T10:14:23;988.571;;;25.91;49.0
13058;BME280;6595;49.578;11.012;2023-06-19T10:16:24;988.587;;;26.14;48.8
13058;BME280;6595;49.578;11.012;2023-06-19T10:18:24;988.555;;;26.14;48.4
13058;BME280;6595;49.578;11.012;2023-06-19T10:20:26;988.546;;;26.35;49.6
13058;BME280;6595;49.578;11.012;2023-06-19T10:22:23;988.495;;;26.17;48.4
13058;BME280;6595;49.578;11.012;2023-06-19T10:24:26;988.451;;;26.24;48.6
13058;BME280;6595;49.578;11.012;2023-06-19T10:26:32;988.430;;;26.34;48.0
13058;BME280;6595;49.578;11.012;2023-06-19T10:28:26;988.442;;;26.31;48.2
13058;BME280;6595;49.578;11.012;2023-06-19T10:30:24;988.442;;;26.44;47.5
13058;BME280;6595;49.578;11.012;2023-06-19T10:32:23;988.502;;;26.58;47.7
13058;BME280;6595;49.578;11.012;2023-06-19T10:34:33;988.503;;;26.98;48.3
13058;BME280;6595;49.578;11.012;2023-06-19T10:36:24;988.476;;;27.07;47.3
13058;BME280;6595;49.578;11.012;2023-06-19T10:38:23;988.556;;;27.33;46.7
13058;BME280;6595;49.578;11.012;2023-06-19T10:40:23;988.485;;;27.46;46.6
13058;BME280;6595;49.578;11.012;2023-06-19T10:42:24;988.447;;;27.60;46.5
13058;BME280;6595;49.578;11.012;2023-06-19T10:44:23;988.491;;;27.71;45.1
13058;BME280;6595;49.578;11.012;2023-06-19T10:46:28;988.536;;;27.60;45.2
13058;BME280;6595;49.578;11.012;2023-06-19T10:48:24;988.466;;;27.59;46.2
13058;BME280;6595;49.578;11.012;2023-06-19T10:50:24;988.406;;;27.73;45.4
13058;BME280;6595;49.578;11.012;2023-06-19T10:52:24;988.406;;;27.73;45.4
13058;BME280;6595;49.578;11.012;2023-06-19T10:54:23;988.337;;;28.17;46.0